createdAt,value
2018-12-14T00:00:15.666Z,9.77
2018-12-14T00:02:43.787Z,9.00
2018-12-14T00:05:11.839Z,10.50
2018-12-14T00:07:39.927Z,8.93
2018-12-14T00:10:08.125Z,11.40
2018-12-14T00:12:36.180Z,9.60
2018-12-14T00:15:05.307Z,9.70
2018-12-14T00:17:33.391Z,10.07
2018-12-14T00:20:01.492Z,9.90
2018-12-14T00:22:29.585Z,9.77
2018-12-14T00:24:57.642Z,9.60
2018-12-14T00:27:25.911Z,9.67
2018-12-14T00:29:54.417Z,9.43
2018-12-14T00:32:22.565Z,8.93
2018-12-14T00:34:50.625Z,10.33
2018-12-14T00:37:18.715Z,10.20
2018-12-14T00:39:46.827Z,10.07
2018-12-14T00:42:14.976Z,10.07
2018-12-14T00:44:43.041Z,10.13
2018-12-14T00:47:11.109Z,10.40
2018-12-14T00:49:39.184Z,10.23
2018-12-14T00:52:07.271Z,9.37
2018-12-14T00:54:35.336Z,9.20
2018-12-14T00:57:03.513Z,8.27
2018-12-14T00:59:31.571Z,9.07
2018-12-14T01:01:59.687Z,10.80
2018-12-14T01:04:27.778Z,9.10
2018-12-14T01:06:55.845Z,9.13
2018-12-14T01:09:23.905Z,9.43
2018-12-14T01:11:58.087Z,10.43
2018-12-14T01:14:22.189Z,8.90
2018-12-14T01:16:50.297Z,9.70
2018-12-14T01:19:18.377Z,9.27
2018-12-14T01:21:46.512Z,10.20
2018-12-14T01:24:14.775Z,10.00
2018-12-14T01:26:42.883Z,9.83
2018-12-14T01:29:10.938Z,11.17
2018-12-14T01:31:39.085Z,9.87
2018-12-14T01:34:07.119Z,9.90
2018-12-14T01:36:35.186Z,9.70
2018-12-14T01:39:04.506Z,8.97
2018-12-14T01:41:32.524Z,8.70
2018-12-14T01:44:00.607Z,8.60
2018-12-14T01:46:28.665Z,7.77
2018-12-14T01:48:56.738Z,8.27
2018-12-14T01:51:25.847Z,9.30
2018-12-14T01:53:53.928Z,8.67
2018-12-14T01:56:22.886Z,8.53
2018-12-14T01:58:50.936Z,9.50
2018-12-14T02:01:19.008Z,9.30
2018-12-14T02:03:47.073Z,12.33
2018-12-14T02:06:15.186Z,10.73
2018-12-14T02:08:43.260Z,10.40
2018-12-14T02:11:11.304Z,9.47
2018-12-14T02:13:39.389Z,8.67
2018-12-14T02:16:07.448Z,9.07
2018-12-14T02:18:35.596Z,9.63
2018-12-14T02:21:03.666Z,9.23
2018-12-14T02:23:31.773Z,8.90
2018-12-14T02:25:59.842Z,9.40
2018-12-14T02:28:27.936Z,10.37
2018-12-14T02:30:55.998Z,10.00
2018-12-14T02:33:24.074Z,9.97
2018-12-14T02:35:52.176Z,9.27
2018-12-14T02:38:20.238Z,8.80
2018-12-14T02:40:48.300Z,9.07
2018-12-14T02:43:16.421Z,9.47
2018-12-14T02:45:44.442Z,9.10
2018-12-14T02:48:12.523Z,9.97
2018-12-14T02:50:40.676Z,8.90
2018-12-14T02:53:08.739Z,10.13
2018-12-14T02:55:36.794Z,9.70
2018-12-14T02:58:04.893Z,8.93
2018-12-14T03:00:32.968Z,9.67
2018-12-14T03:03:01.214Z,10.10
2018-12-14T03:05:29.277Z,9.97
2018-12-14T03:07:57.348Z,10.50
2018-12-14T03:10:25.426Z,10.67
2018-12-14T03:12:53.477Z,9.23
2018-12-14T03:15:21.560Z,9.20
2018-12-14T03:17:49.693Z,9.57
2018-12-14T03:20:17.736Z,9.17
2018-12-14T03:22:45.833Z,8.90
2018-12-14T03:25:13.867Z,10.33
2018-12-14T03:27:41.928Z,9.90
2018-12-14T03:30:10.346Z,9.53
2018-12-14T03:32:38.429Z,10.03
2018-12-14T03:35:06.618Z,9.07
2018-12-14T03:37:34.693Z,9.77
2018-12-14T03:40:02.832Z,8.60
2018-12-14T03:42:34.391Z,9.53
2018-12-14T03:45:01.004Z,9.93
2018-12-14T03:47:29.084Z,9.03
2018-12-14T03:49:57.221Z,9.37
2018-12-14T03:52:25.287Z,9.73
2018-12-14T03:54:53.360Z,9.70
2018-12-14T03:57:21.479Z,10.20
2018-12-14T03:59:49.708Z,9.53
2018-12-14T04:02:18.765Z,9.67
2018-12-14T04:04:46.865Z,9.77
2018-12-14T04:07:14.921Z,9.13
2018-12-14T04:09:42.975Z,9.73
2018-12-14T04:12:11.051Z,9.63
2018-12-14T04:14:39.160Z,9.90
2018-12-14T04:17:07.259Z,10.23
2018-12-14T04:19:35.353Z,9.87
2018-12-14T04:22:03.442Z,9.90
2018-12-14T04:24:31.520Z,9.50
2018-12-14T04:26:59.606Z,9.97
2018-12-14T04:29:27.703Z,8.90
2018-12-14T04:31:55.772Z,9.40
2018-12-14T04:34:23.850Z,9.47
2018-12-14T04:36:52.100Z,10.17
2018-12-14T04:39:20.217Z,10.23
2018-12-14T04:41:48.250Z,9.47
2018-12-14T04:44:16.420Z,9.50
2018-12-14T04:46:44.500Z,9.00
2018-12-14T04:49:12.669Z,9.30
2018-12-14T04:51:40.702Z,9.53
2018-12-14T04:54:08.785Z,8.00
2018-12-14T04:56:36.892Z,8.80
2018-12-14T04:59:04.967Z,9.43
2018-12-14T05:01:33.032Z,9.57
2018-12-14T05:04:01.132Z,9.77
2018-12-14T05:06:29.357Z,9.23
2018-12-14T05:08:57.431Z,9.30
2018-12-14T05:11:25.515Z,9.10
2018-12-14T05:13:53.588Z,9.20
2018-12-14T05:16:21.642Z,10.43
2018-12-14T05:18:49.696Z,9.83
2018-12-14T05:21:17.763Z,8.80
2018-12-14T05:23:45.828Z,8.03
2018-12-14T05:26:13.910Z,9.33
2018-12-14T05:28:42.042Z,9.70
2018-12-14T05:31:10.098Z,10.13
2018-12-14T05:33:38.254Z,8.40
2018-12-14T05:36:06.312Z,9.73
2018-12-14T05:38:34.424Z,10.37
2018-12-14T05:41:02.543Z,9.20
2018-12-14T05:43:30.609Z,8.53
2018-12-14T05:45:58.697Z,8.77
2018-12-14T05:48:26.768Z,9.23
2018-12-14T05:50:54.830Z,9.33
2018-12-14T05:53:22.907Z,10.33
2018-12-14T05:55:51.015Z,8.87
2018-12-14T05:58:19.082Z,9.47
2018-12-14T06:00:47.215Z,9.13
2018-12-14T06:03:15.298Z,10.73
2018-12-14T06:05:43.382Z,10.53
2018-12-14T06:08:11.532Z,8.90
2018-12-14T06:10:39.620Z,10.47
2018-12-14T06:13:09.171Z,10.63
2018-12-14T06:15:37.683Z,9.57
2018-12-14T06:18:05.853Z,9.47
2018-12-14T06:20:33.920Z,9.60
2018-12-14T06:23:01.983Z,9.53
2018-12-14T06:25:30.222Z,9.87
2018-12-14T06:27:58.310Z,10.47
2018-12-14T06:30:26.407Z,9.87
2018-12-14T06:32:54.541Z,9.30
2018-12-14T06:35:22.626Z,9.73
2018-12-14T06:37:50.725Z,9.27
2018-12-14T06:40:18.814Z,9.90
2018-12-14T06:42:46.941Z,10.23
2018-12-14T06:45:15.086Z,8.63
2018-12-14T06:47:43.183Z,9.37
2018-12-14T06:50:11.585Z,9.80
2018-12-14T06:52:39.647Z,9.13
2018-12-14T06:55:07.735Z,9.33
2018-12-14T06:57:35.820Z,9.17
2018-12-14T07:00:05.215Z,9.70
2018-12-14T07:02:33.336Z,9.90
2018-12-14T07:05:01.427Z,10.13
2018-12-14T07:07:29.636Z,9.93
2018-12-14T07:09:57.666Z,10.57
2018-12-14T07:12:25.766Z,10.47
2018-12-14T07:14:53.898Z,8.67
2018-12-14T07:17:21.981Z,9.07
2018-12-14T07:19:50.062Z,10.10
2018-12-14T07:22:18.146Z,9.77
2018-12-14T07:24:46.299Z,10.43
2018-12-14T07:27:14.367Z,10.07
2018-12-14T07:29:42.426Z,11.37
2018-12-14T07:32:11.010Z,10.43
2018-12-14T07:34:40.134Z,10.03
2018-12-14T07:37:08.300Z,10.00
2018-12-14T07:39:36.382Z,8.63
2018-12-14T07:42:04.505Z,8.60
2018-12-14T07:44:32.735Z,9.87
2018-12-14T07:47:00.984Z,10.40
2018-12-14T07:49:29.068Z,9.23
2018-12-14T07:51:57.862Z,11.13
2018-12-14T07:54:25.947Z,11.27
2018-12-14T07:56:54.036Z,10.63
2018-12-14T07:59:22.130Z,10.50
2018-12-14T08:01:50.208Z,10.60
2018-12-14T08:04:18.362Z,9.47
2018-12-14T08:06:46.431Z,10.13
2018-12-14T08:09:14.658Z,11.00
2018-12-14T08:11:42.720Z,9.90
2018-12-14T08:14:10.777Z,10.90
2018-12-14T08:16:38.922Z,10.87
2018-12-14T08:19:06.956Z,10.30
2018-12-14T08:21:35.071Z,9.67
2018-12-14T08:24:03.156Z,9.30
2018-12-14T08:26:31.335Z,9.43
2018-12-14T08:28:59.386Z,11.37
2018-12-14T08:31:27.479Z,10.30
2018-12-14T08:33:55.551Z,10.07
2018-12-14T08:36:23.639Z,11.57
2018-12-14T08:38:51.727Z,9.90
2018-12-14T08:41:19.964Z,10.20
2018-12-14T08:43:48.030Z,9.87
2018-12-14T08:46:16.102Z,9.50
2018-12-14T08:48:44.200Z,9.17
2018-12-14T08:51:12.284Z,9.53
2018-12-14T08:53:40.527Z,10.37
2018-12-14T08:56:08.562Z,10.53
2018-12-14T08:58:36.717Z,10.63
2018-12-14T09:01:04.803Z,10.67
2018-12-14T09:03:32.918Z,10.00
2018-12-14T09:06:00.982Z,9.73
2018-12-14T09:08:29.074Z,10.60
2018-12-14T09:10:57.169Z,11.53
2018-12-14T09:13:25.203Z,9.87
2018-12-14T09:15:53.312Z,10.87
2018-12-14T09:18:21.409Z,10.57
2018-12-14T09:20:49.483Z,10.20
2018-12-14T09:23:17.639Z,10.93
2018-12-14T09:25:45.791Z,10.70
2018-12-14T09:28:13.871Z,10.73
2018-12-14T09:30:42.893Z,10.00
2018-12-14T09:33:11.128Z,10.17
2018-12-14T09:35:39.285Z,10.00
2018-12-14T09:38:07.359Z,8.70
2018-12-14T09:40:35.504Z,11.03
2018-12-14T09:43:03.605Z,9.70
2018-12-14T09:45:31.731Z,9.40
2018-12-14T09:47:59.787Z,8.17
2018-12-14T09:50:29.075Z,8.17
2018-12-14T09:52:57.255Z,9.30
2018-12-14T09:55:25.352Z,8.27
2018-12-14T09:57:53.428Z,9.10
2018-12-14T10:00:21.496Z,9.80
2018-12-14T10:02:49.588Z,9.93
2018-12-14T10:05:17.705Z,10.13
2018-12-14T10:07:46.946Z,8.97
2018-12-14T10:10:15.296Z,8.50
2018-12-14T10:12:43.364Z,8.37
2018-12-14T10:15:11.448Z,8.33
2018-12-14T10:17:39.562Z,8.30
2018-12-14T10:20:09.962Z,7.60
2018-12-14T10:22:41.478Z,8.97
2018-12-14T10:25:08.223Z,8.90
2018-12-14T10:27:36.378Z,9.87
2018-12-14T10:30:07.058Z,9.27
2018-12-14T10:32:35.276Z,9.87
2018-12-14T10:35:04.372Z,9.80
2018-12-14T10:37:32.484Z,9.50
2018-12-14T10:40:00.537Z,9.37
2018-12-14T10:42:28.627Z,8.40
2018-12-14T10:44:56.713Z,9.33
2018-12-14T10:47:24.803Z,10.47
2018-12-14T10:49:52.890Z,10.13
2018-12-14T10:52:21.003Z,10.53
2018-12-14T10:54:49.253Z,11.43
2018-12-14T10:57:17.353Z,12.10
2018-12-14T10:59:45.457Z,11.00
2018-12-14T11:02:13.688Z,10.03
2018-12-14T11:04:41.789Z,11.23
2018-12-14T11:07:09.940Z,10.63
2018-12-14T11:09:38.013Z,9.33
2018-12-14T11:12:06.051Z,9.60
2018-12-14T11:14:34.134Z,10.43
2018-12-14T11:17:02.194Z,10.37
2018-12-14T11:19:30.274Z,10.50
2018-12-14T11:21:58.343Z,11.33
2018-12-14T11:24:26.410Z,10.77
2018-12-14T11:26:54.473Z,10.27
2018-12-14T11:29:22.539Z,8.60
2018-12-14T11:31:51.641Z,8.07
2018-12-14T11:34:19.698Z,8.77
2018-12-14T11:36:47.777Z,7.17
2018-12-14T11:39:15.827Z,7.87
2018-12-14T11:41:44.179Z,10.10
2018-12-14T11:44:12.249Z,8.97
2018-12-14T11:46:40.337Z,8.50
2018-12-14T11:49:08.390Z,8.27
2018-12-14T11:51:36.515Z,7.90
2018-12-14T11:54:04.591Z,8.27
2018-12-14T11:56:32.660Z,9.17
2018-12-14T11:59:00.736Z,9.03
2018-12-14T12:01:28.836Z,7.50
2018-12-14T12:03:56.995Z,8.47
2018-12-14T12:06:25.066Z,8.27
2018-12-14T12:08:53.122Z,9.70
2018-12-14T12:11:21.904Z,9.77
2018-12-14T12:13:49.988Z,10.40
2018-12-14T12:16:18.157Z,7.87
2018-12-14T12:18:46.378Z,8.03
2018-12-14T12:21:14.504Z,8.57
2018-12-14T12:23:42.657Z,9.23
2018-12-14T12:26:10.718Z,7.80
2018-12-14T12:28:38.783Z,7.47
2018-12-14T12:31:06.851Z,7.73
2018-12-14T12:33:34.942Z,7.40
2018-12-14T12:36:02.996Z,7.20
2018-12-14T12:38:31.098Z,7.80
2018-12-14T12:40:59.696Z,8.50
2018-12-14T12:43:27.763Z,7.87
2018-12-14T12:45:55.848Z,8.03
2018-12-14T12:48:23.895Z,7.43
2018-12-14T12:50:51.969Z,8.33
2018-12-14T12:53:20.044Z,7.27
2018-12-14T12:55:48.148Z,7.60
2018-12-14T12:58:16.201Z,7.80
2018-12-14T13:00:44.263Z,7.93
2018-12-14T13:03:12.394Z,7.13
2018-12-14T13:05:40.467Z,7.83
2018-12-14T13:08:08.539Z,7.40
2018-12-14T13:10:36.569Z,8.70
2018-12-14T13:13:04.666Z,7.30
2018-12-14T13:15:32.822Z,7.57
2018-12-14T13:18:00.876Z,7.47
2018-12-14T13:20:28.951Z,8.40
2018-12-14T13:22:57.019Z,9.20
2018-12-14T13:25:25.102Z,7.97
2018-12-14T13:27:53.180Z,8.27
2018-12-14T13:30:21.332Z,7.93
2018-12-14T13:32:49.396Z,8.17
2018-12-14T13:35:17.457Z,8.53
2018-12-14T13:37:45.584Z,8.57
2018-12-14T13:40:13.666Z,9.63
2018-12-14T13:42:41.791Z,7.63
2018-12-14T13:45:09.966Z,9.00
2018-12-14T13:47:38.138Z,8.47
2018-12-14T13:50:06.602Z,8.10
2018-12-14T13:52:34.811Z,7.57
2018-12-14T13:55:03.093Z,7.97
2018-12-14T13:57:31.271Z,7.17
2018-12-14T13:59:59.340Z,6.97
2018-12-14T14:02:27.422Z,7.90
2018-12-14T14:04:55.557Z,7.80
2018-12-14T14:07:23.623Z,8.03
2018-12-14T14:09:51.705Z,7.93
2018-12-14T14:12:19.776Z,8.00
2018-12-14T14:14:52.971Z,7.17
2018-12-14T14:17:18.053Z,7.47
2018-12-14T14:19:46.379Z,6.90
2018-12-14T14:22:14.551Z,6.50
2018-12-14T14:24:42.616Z,7.63
2018-12-14T14:27:10.680Z,6.80
2018-12-14T14:29:38.796Z,7.10
2018-12-14T14:32:06.858Z,6.67
2018-12-14T14:34:35.071Z,5.90
2018-12-14T14:37:03.233Z,6.50
2018-12-14T14:39:31.274Z,5.53
2018-12-14T14:41:59.459Z,6.07
2018-12-14T14:44:27.563Z,6.77
2018-12-14T14:46:56.435Z,6.67
2018-12-14T14:49:24.526Z,6.27
2018-12-14T14:51:52.839Z,6.73
2018-12-14T14:54:20.903Z,6.53
2018-12-14T14:56:48.986Z,6.07
2018-12-14T14:59:17.059Z,6.87
2018-12-14T15:01:45.161Z,7.63
2018-12-14T15:04:13.279Z,7.87
2018-12-14T15:06:41.447Z,7.87
2018-12-14T15:09:09.771Z,7.43
2018-12-14T15:11:37.901Z,8.17
2018-12-14T15:14:06.036Z,7.70
2018-12-14T15:16:34.201Z,7.87
2018-12-14T15:19:02.284Z,7.67
2018-12-14T15:21:30.366Z,8.03
2018-12-14T15:23:58.446Z,9.10
2018-12-14T15:26:26.597Z,8.27
2018-12-14T15:28:54.661Z,8.50
2018-12-14T15:31:22.734Z,7.93
2018-12-14T15:33:50.786Z,8.10
2018-12-14T15:36:18.931Z,7.43
2018-12-14T15:38:46.973Z,8.20
2018-12-14T15:41:15.028Z,7.23
2018-12-14T15:43:43.097Z,8.00
2018-12-14T15:46:11.186Z,7.43
2018-12-14T15:48:39.259Z,7.23
2018-12-14T15:51:07.504Z,6.80
2018-12-14T15:53:35.549Z,7.27
2018-12-14T15:56:03.670Z,8.10
2018-12-14T15:58:31.762Z,7.27
2018-12-14T16:00:59.876Z,6.90
2018-12-14T16:03:28.070Z,7.33
2018-12-14T16:05:56.139Z,7.00
2018-12-14T16:08:24.219Z,7.80
2018-12-14T16:10:52.299Z,7.03
2018-12-14T16:13:20.382Z,7.43
2018-12-14T16:15:48.454Z,7.00
2018-12-14T16:18:16.609Z,7.67
2018-12-14T16:20:44.699Z,7.40
2018-12-14T16:23:12.766Z,7.03
2018-12-14T16:25:40.835Z,7.53
2018-12-14T16:28:09.681Z,7.43
2018-12-14T16:30:37.759Z,6.60
2018-12-14T16:33:06.101Z,6.73
2018-12-14T16:35:34.170Z,6.33
2018-12-14T16:38:02.262Z,6.90
2018-12-14T16:40:30.356Z,6.67
2018-12-14T16:42:58.490Z,6.77
2018-12-14T16:45:26.710Z,6.30
2018-12-14T16:47:54.983Z,6.97
2018-12-14T16:50:23.055Z,6.10
2018-12-14T16:52:51.163Z,7.20
2018-12-14T16:55:19.326Z,6.40
2018-12-14T16:57:47.603Z,5.73
2018-12-14T17:00:15.672Z,6.27
2018-12-14T17:02:43.824Z,6.60
2018-12-14T17:05:11.907Z,6.50
2018-12-14T17:07:40.040Z,5.80
2018-12-14T17:10:08.185Z,6.43
2018-12-14T17:12:36.239Z,6.20
2018-12-14T17:15:05.440Z,6.40
2018-12-14T17:17:33.591Z,6.67
2018-12-14T17:20:01.799Z,6.33
2018-12-14T17:22:29.872Z,6.57
2018-12-14T17:24:57.920Z,7.20
2018-12-14T17:27:26.012Z,6.53
2018-12-14T17:29:54.059Z,6.13
2018-12-14T17:32:22.934Z,6.63
2018-12-14T17:34:50.997Z,5.07
2018-12-14T17:37:19.103Z,5.50
2018-12-14T17:39:47.191Z,6.53
2018-12-14T17:42:15.279Z,4.87
2018-12-14T17:44:43.439Z,5.33
2018-12-14T17:47:11.662Z,5.53
2018-12-14T17:49:39.893Z,5.40
2018-12-14T17:52:07.939Z,5.73
2018-12-14T17:54:35.991Z,6.33
2018-12-14T17:57:04.059Z,5.83
2018-12-14T17:59:32.155Z,6.13
2018-12-14T18:02:00.257Z,6.00
2018-12-14T18:04:28.329Z,5.13
2018-12-14T18:06:56.437Z,6.07
2018-12-14T18:09:24.507Z,4.77
2018-12-14T18:11:52.604Z,5.70
2018-12-14T18:14:20.668Z,5.17
2018-12-14T18:16:48.731Z,5.80
2018-12-14T18:19:17.043Z,5.50
2018-12-14T18:21:45.117Z,5.33
2018-12-14T18:24:13.323Z,6.07
2018-12-14T18:26:41.537Z,6.07
2018-12-14T18:29:09.641Z,5.83
2018-12-14T18:31:37.716Z,5.83
2018-12-14T18:34:05.841Z,5.53
2018-12-14T18:36:33.881Z,5.80
2018-12-14T18:39:01.993Z,5.83
2018-12-14T18:41:30.071Z,5.17
2018-12-14T18:43:58.164Z,5.93
2018-12-14T18:46:26.260Z,5.93
2018-12-14T18:48:54.326Z,6.00
2018-12-14T18:51:22.384Z,5.97
2018-12-14T18:53:52.418Z,6.80
2018-12-14T18:56:20.494Z,6.83
2018-12-14T18:58:49.133Z,6.43
2018-12-14T19:01:17.762Z,6.67
2018-12-14T19:03:46.021Z,6.20
2018-12-14T19:06:14.195Z,5.40
2018-12-14T19:08:42.247Z,5.50
2018-12-14T19:11:10.393Z,5.57
2018-12-14T19:13:38.492Z,6.07
2018-12-14T19:16:06.553Z,5.70
2018-12-14T19:18:35.219Z,6.27
2018-12-14T19:21:03.317Z,6.10
2018-12-14T19:23:31.408Z,6.37
2018-12-14T19:25:59.535Z,6.37
2018-12-14T19:28:28.444Z,5.80
2018-12-14T19:30:56.493Z,7.30
2018-12-14T19:33:24.597Z,7.27
2018-12-14T19:35:52.662Z,6.50
2018-12-14T19:38:20.768Z,7.03
2018-12-14T19:40:49.080Z,5.77
2018-12-14T19:43:17.224Z,6.20
2018-12-14T19:45:45.348Z,6.83
2018-12-14T19:48:13.451Z,6.90
2018-12-14T19:50:41.528Z,6.47
2018-12-14T19:53:09.608Z,7.67
2018-12-14T19:55:37.685Z,6.73
2018-12-14T19:58:05.768Z,7.63
2018-12-14T20:00:33.902Z,7.00
2018-12-14T20:03:02.004Z,6.60
2018-12-14T20:05:30.054Z,7.30
2018-12-14T20:07:58.150Z,6.43
2018-12-14T20:10:26.221Z,7.30
2018-12-14T20:12:54.302Z,7.00
2018-12-14T20:15:22.425Z,7.43
2018-12-14T20:17:50.486Z,7.07
2018-12-14T20:20:18.647Z,6.80
2018-12-14T20:22:46.728Z,7.23
2018-12-14T20:25:14.813Z,8.30
2018-12-14T20:27:43.008Z,7.57
2018-12-14T20:30:11.269Z,7.07
2018-12-14T20:32:39.340Z,7.63
2018-12-14T20:35:07.661Z,8.03
2018-12-14T20:37:35.741Z,7.67
2018-12-14T20:40:05.068Z,7.20
2018-12-14T20:42:33.195Z,6.90
2018-12-14T20:45:01.297Z,6.63
2018-12-14T20:47:29.448Z,7.63
2018-12-14T20:49:57.591Z,7.60
2018-12-14T20:52:25.661Z,7.70
2018-12-14T20:54:53.746Z,8.00
2018-12-14T20:57:21.843Z,7.67
2018-12-14T20:59:49.935Z,6.97
2018-12-14T21:02:25.237Z,7.63
2018-12-14T21:04:53.292Z,6.80
2018-12-14T21:07:21.375Z,7.00
2018-12-14T21:09:49.463Z,9.07
2018-12-14T21:12:18.276Z,6.97
2018-12-14T21:14:50.834Z,6.13
2018-12-14T21:17:16.431Z,6.83
2018-12-14T21:19:44.497Z,6.17
2018-12-14T21:22:12.893Z,7.40
2018-12-14T21:24:41.060Z,7.13
2018-12-14T21:27:09.147Z,6.87
2018-12-14T21:29:37.241Z,6.60
2018-12-14T21:32:05.321Z,6.33
2018-12-14T21:34:33.407Z,6.90
2018-12-14T21:37:01.495Z,6.47
2018-12-14T21:39:29.566Z,5.47
2018-12-14T21:41:57.714Z,5.77
2018-12-14T21:44:25.790Z,5.77
2018-12-14T21:46:53.845Z,6.63
2018-12-14T21:49:21.932Z,7.23
2018-12-14T21:51:50.035Z,7.00
2018-12-14T21:54:18.091Z,7.20
2018-12-14T21:56:46.190Z,7.23
2018-12-14T21:59:14.261Z,6.70
2018-12-14T22:01:42.315Z,6.47
2018-12-14T22:04:10.394Z,6.80
2018-12-14T22:06:38.533Z,7.17
2018-12-14T22:09:07.605Z,7.63
2018-12-14T22:11:35.758Z,7.17
2018-12-14T22:14:03.964Z,7.03
2018-12-14T22:16:32.035Z,6.30
2018-12-14T22:19:00.096Z,7.00
2018-12-14T22:21:28.158Z,6.93
2018-12-14T22:23:56.255Z,6.57
2018-12-14T22:26:24.340Z,6.70
2018-12-14T22:28:52.382Z,6.60
2018-12-14T22:31:20.517Z,6.60
2018-12-14T22:33:48.590Z,7.17
2018-12-14T22:36:16.666Z,7.23
2018-12-14T22:38:44.742Z,6.60
2018-12-14T22:41:12.882Z,7.00
2018-12-14T22:43:40.962Z,5.70
2018-12-14T22:46:09.048Z,6.90
2018-12-14T22:48:37.150Z,7.53
2018-12-14T22:51:05.334Z,7.60
2018-12-14T22:53:33.468Z,7.33
2018-12-14T22:56:01.640Z,8.00
2018-12-14T22:58:29.712Z,7.73
2018-12-14T23:00:57.842Z,6.80
2018-12-14T23:03:25.940Z,7.30
2018-12-14T23:05:54.054Z,7.53
2018-12-14T23:08:22.108Z,8.07
2018-12-14T23:10:50.207Z,8.23
2018-12-14T23:13:18.261Z,8.53
2018-12-14T23:15:46.324Z,8.30
2018-12-14T23:18:14.462Z,7.53
2018-12-14T23:20:42.509Z,7.67
2018-12-14T23:23:10.758Z,8.13
2018-12-14T23:25:38.850Z,8.00
2018-12-14T23:28:06.920Z,7.50
2018-12-14T23:30:35.013Z,8.23
2018-12-14T23:33:03.227Z,9.07
2018-12-14T23:35:31.296Z,8.53
2018-12-14T23:37:59.365Z,7.77
2018-12-14T23:40:27.449Z,8.00
2018-12-14T23:42:56.521Z,8.67
2018-12-14T23:45:24.592Z,9.20
2018-12-14T23:47:52.656Z,8.33
2018-12-14T23:50:20.832Z,7.83
2018-12-14T23:52:48.953Z,8.40
2018-12-14T23:55:17.021Z,8.30
2018-12-14T23:57:45.307Z,7.80
